X  CloseMetar Aviation Weather Data     KSDL Scottsdale

Temperature

84°F Temperature

39°F Dewpoint

20% Humidity



Wind

 0 MPH

 0 KM/H

 0 M/S

 0 KTS



Calm
Due North
Current Conditions

Clear Clear
Pressure 1013.52 (hPa) - 29.93 (in)
Visibility 10 (mi) - 16.1 (km)
Airport
Airport-code KSDL

Location Scottsdale 15 (mi)

Metar:
KSDL 011353Z 00000KT 10SM CLR 29/04 A2993 RMK AO2 SLP106 T02890044

Time: 06-01-2020 06:53